sensor_id;sensor_type;location;lat;lon;timestamp;temperature;humidity
78704;SHT31;68034;51.966;5.676;2023-09-12T00:01:43;21.2;76.5
78704;SHT31;68034;51.966;5.676;2023-09-12T00:04:12;21.2;76.7
78704;SHT31;68034;51.966;5.676;2023-09-12T00:06:40;21.1;77.0
78704;SHT31;68034;51.966;5.676;2023-09-12T00:09:09;21.1;77.3
78704;SHT31;68034;51.966;5.676;2023-09-12T00:11:39;21.0;77.5
78704;SHT31;68034;51.966;5.676;2023-09-12T00:14:08;21.0;78.0
78704;SHT31;68034;51.966;5.676;2023-09-12T00:16:37;21.0;78.2
78704;SHT31;68034;51.966;5.676;2023-09-12T00:19:06;21.0;77.9
78704;SHT31;68034;51.966;5.676;2023-09-12T00:21:34;21.0;78.0
78704;SHT31;68034;51.966;5.676;2023-09-12T00:24:03;20.9;77.9
78704;SHT31;68034;51.966;5.676;2023-09-12T00:26:34;20.9;77.9
78704;SHT31;68034;51.966;5.676;2023-09-12T00:29:02;20.9;78.0
78704;SHT31;68034;51.966;5.676;2023-09-12T00:31:31;20.9;78.1
78704;SHT31;68034;51.966;5.676;2023-09-12T00:33:59;20.9;78.3
78704;SHT31;68034;51.966;5.676;2023-09-12T00:36:28;20.8;78.4
78704;SHT31;68034;51.966;5.676;2023-09-12T00:38:56;20.8;78.3
78704;SHT31;68034;51.966;5.676;2023-09-12T00:41:25;20.8;78.5
78704;SHT31;68034;51.966;5.676;2023-09-12T00:43:53;20.8;78.6
78704;SHT31;68034;51.966;5.676;2023-09-12T00:46:23;20.8;78.4
78704;SHT31;68034;51.966;5.676;2023-09-12T00:48:53;20.8;78.6
78704;SHT31;68034;51.966;5.676;2023-09-12T00:51:25;20.7;78.6
78704;SHT31;68034;51.966;5.676;2023-09-12T00:53:54;20.7;78.9
78704;SHT31;68034;51.966;5.676;2023-09-12T00:56:24;20.7;79.1
78704;SHT31;68034;51.966;5.676;2023-09-12T00:58:55;20.7;79.3
78704;SHT31;68034;51.966;5.676;2023-09-12T01:01:23;20.7;79.5
78704;SHT31;68034;51.966;5.676;2023-09-12T01:03:52;20.8;79.5
78704;SHT31;68034;51.966;5.676;2023-09-12T01:06:26;20.8;80.0
78704;SHT31;68034;51.966;5.676;2023-09-12T01:09:05;20.8;82.0
78704;SHT31;68034;51.966;5.676;2023-09-12T01:11:38;20.8;82.4
78704;SHT31;68034;51.966;5.676;2023-09-12T01:14:07;20.8;81.8
78704;SHT31;68034;51.966;5.676;2023-09-12T01:16:35;20.9;81.2
78704;SHT31;68034;51.966;5.676;2023-09-12T01:19:06;20.9;80.9
78704;SHT31;68034;51.966;5.676;2023-09-12T01:22:00;20.9;80.3
78704;SHT31;68034;51.966;5.676;2023-09-12T01:24:57;20.9;80.1
78704;SHT31;68034;51.966;5.676;2023-09-12T01:27:34;20.9;79.8
78704;SHT31;68034;51.966;5.676;2023-09-12T01:30:05;20.9;79.7
78704;SHT31;68034;51.966;5.676;2023-09-12T01:32:35;20.9;79.7
78704;SHT31;68034;51.966;5.676;2023-09-12T01:35:07;20.8;79.7
78704;SHT31;68034;51.966;5.676;2023-09-12T01:37:36;20.8;79.9
78704;SHT31;68034;51.966;5.676;2023-09-12T01:40:06;20.8;79.9
78704;SHT31;68034;51.966;5.676;2023-09-12T01:42:38;20.7;79.8
78704;SHT31;68034;51.966;5.676;2023-09-12T01:45:13;20.7;79.8
78704;SHT31;68034;51.966;5.676;2023-09-12T01:47:42;20.7;79.7
78704;SHT31;68034;51.966;5.676;2023-09-12T01:50:14;20.6;79.9
78704;SHT31;68034;51.966;5.676;2023-09-12T01:52:43;20.6;80.1
78704;SHT31;68034;51.966;5.676;2023-09-12T01:55:14;20.5;80.0
78704;SHT31;68034;51.966;5.676;2023-09-12T01:57:43;20.5;79.8
78704;SHT31;68034;51.966;5.676;2023-09-12T02:00:13;20.5;79.8
78704;SHT31;68034;51.966;5.676;2023-09-12T02:02:41;20.4;80.2
78704;SHT31;68034;51.966;5.676;2023-09-12T02:05:13;20.4;80.2
78704;SHT31;68034;51.966;5.676;2023-09-12T02:07:45;20.4;80.5
78704;SHT31;68034;51.966;5.676;2023-09-12T02:10:15;20.3;80.6
78704;SHT31;68034;51.966;5.676;2023-09-12T02:12:43;20.3;80.5
78704;SHT31;68034;51.966;5.676;2023-09-12T02:15:13;20.2;80.6
78704;SHT31;68034;51.966;5.676;2023-09-12T02:17:42;20.2;80.7
78704;SHT31;68034;51.966;5.676;2023-09-12T02:20:11;20.2;80.8
78704;SHT31;68034;51.966;5.676;2023-09-12T02:22:39;20.1;81.1
78704;SHT31;68034;51.966;5.676;2023-09-12T02:25:08;20.1;81.3
78704;SHT31;68034;51.966;5.676;2023-09-12T02:27:37;20.1;81.2
78704;SHT31;68034;51.966;5.676;2023-09-12T02:30:06;20.1;81.1
78704;SHT31;68034;51.966;5.676;2023-09-12T02:32:35;20.0;81.2
78704;SHT31;68034;51.966;5.676;2023-09-12T02:35:04;20.0;81.0
78704;SHT31;68034;51.966;5.676;2023-09-12T02:37:32;20.0;81.2
78704;SHT31;68034;51.966;5.676;2023-09-12T02:40:03;20.0;81.3
78704;SHT31;68034;51.966;5.676;2023-09-12T02:42:33;20.0;81.0
78704;SHT31;68034;51.966;5.676;2023-09-12T02:45:02;20.0;81.0
78704;SHT31;68034;51.966;5.676;2023-09-12T02:47:30;20.0;81.1
78704;SHT31;68034;51.966;5.676;2023-09-12T02:49:59;20.0;81.2
78704;SHT31;68034;51.966;5.676;2023-09-12T02:52:28;20.0;81.2
78704;SHT31;68034;51.966;5.676;2023-09-12T02:54:58;20.0;81.0
78704;SHT31;68034;51.966;5.676;2023-09-12T02:57:26;20.0;81.1
78704;SHT31;68034;51.966;5.676;2023-09-12T02:59:55;20.0;81.2
78704;SHT31;68034;51.966;5.676;2023-09-12T03:02:25;20.0;81.7
78704;SHT31;68034;51.966;5.676;2023-09-12T03:04:55;19.9;81.7
78704;SHT31;68034;51.966;5.676;2023-09-12T03:07:24;19.9;82.0
78704;SHT31;68034;51.966;5.676;2023-09-12T03:09:52;20.0;83.5
78704;SHT31;68034;51.966;5.676;2023-09-12T03:12:21;20.0;84.3
78704;SHT31;68034;51.966;5.676;2023-09-12T03:14:49;20.0;83.9
78704;SHT31;68034;51.966;5.676;2023-09-12T03:17:18;20.0;83.3
78704;SHT31;68034;51.966;5.676;2023-09-12T03:19:48;20.0;82.8
78704;SHT31;68034;51.966;5.676;2023-09-12T03:22:18;20.0;82.3
78704;SHT31;68034;51.966;5.676;2023-09-12T03:24:47;20.0;82.0
78704;SHT31;68034;51.966;5.676;2023-09-12T03:27:16;20.0;81.8
78704;SHT31;68034;51.966;5.676;2023-09-12T03:29:46;20.0;81.6
78704;SHT31;68034;51.966;5.676;2023-09-12T03:32:15;20.0;81.4
78704;SHT31;68034;51.966;5.676;2023-09-12T03:34:43;20.0;81.2
78704;SHT31;68034;51.966;5.676;2023-09-12T03:37:11;20.0;81.0
78704;SHT31;68034;51.966;5.676;2023-09-12T03:39:40;20.0;80.9
78704;SHT31;68034;51.966;5.676;2023-09-12T03:42:09;20.0;80.8
78704;SHT31;68034;51.966;5.676;2023-09-12T03:44:38;20.0;80.7
78704;SHT31;68034;51.966;5.676;2023-09-12T03:47:06;19.9;80.5
78704;SHT31;68034;51.966;5.676;2023-09-12T03:49:35;19.9;80.3
78704;SHT31;68034;51.966;5.676;2023-09-12T03:52:04;19.9;80.2
78704;SHT31;68034;51.966;5.676;2023-09-12T03:54:33;19.9;80.1
78704;SHT31;68034;51.966;5.676;2023-09-12T03:57:01;19.9;80.2
78704;SHT31;68034;51.966;5.676;2023-09-12T03:59:30;19.9;80.3
78704;SHT31;68034;51.966;5.676;2023-09-12T04:02:01;19.9;80.8
78704;SHT31;68034;51.966;5.676;2023-09-12T04:04:30;19.9;80.9
78704;SHT31;68034;51.966;5.676;2023-09-12T04:06:58;19.8;81.2
78704;SHT31;68034;51.966;5.676;2023-09-12T04:09:27;19.8;81.4
78704;SHT31;68034;51.966;5.676;2023-09-12T04:11:56;19.8;81.6
78704;SHT31;68034;51.966;5.676;2023-09-12T04:14:24;19.7;81.9
78704;SHT31;68034;51.966;5.676;2023-09-12T04:16:53;19.7;81.9
78704;SHT31;68034;51.966;5.676;2023-09-12T04:19:24;19.7;81.9
78704;SHT31;68034;51.966;5.676;2023-09-12T04:21:53;19.7;81.7
78704;SHT31;68034;51.966;5.676;2023-09-12T04:24:21;19.6;81.9
78704;SHT31;68034;51.966;5.676;2023-09-12T04:26:50;19.6;81.9
78704;SHT31;68034;51.966;5.676;2023-09-12T04:29:18;19.6;81.9
78704;SHT31;68034;51.966;5.676;2023-09-12T04:31:47;19.6;82.2
78704;SHT31;68034;51.966;5.676;2023-09-12T04:34:16;19.5;82.3
78704;SHT31;68034;51.966;5.676;2023-09-12T04:36:45;19.5;82.3
78704;SHT31;68034;51.966;5.676;2023-09-12T04:39:13;19.5;82.4
78704;SHT31;68034;51.966;5.676;2023-09-12T04:41:42;19.5;82.3
78704;SHT31;68034;51.966;5.676;2023-09-12T04:44:11;19.4;82.3
78704;SHT31;68034;51.966;5.676;2023-09-12T04:46:39;19.4;82.4
78704;SHT31;68034;51.966;5.676;2023-09-12T04:49:08;19.4;82.4
78704;SHT31;68034;51.966;5.676;2023-09-12T04:51:36;19.4;82.7
78704;SHT31;68034;51.966;5.676;2023-09-12T04:54:05;19.4;82.8
78704;SHT31;68034;51.966;5.676;2023-09-12T04:56:34;19.4;82.9
78704;SHT31;68034;51.966;5.676;2023-09-12T04:59:04;19.4;82.6
78704;SHT31;68034;51.966;5.676;2023-09-12T05:01:33;19.3;82.5
78704;SHT31;68034;51.966;5.676;2023-09-12T05:04:03;19.3;82.7
78704;SHT31;68034;51.966;5.676;2023-09-12T05:06:32;19.3;83.3
78704;SHT31;68034;51.966;5.676;2023-09-12T05:09:03;19.3;84.0
78704;SHT31;68034;51.966;5.676;2023-09-12T05:11:36;19.4;86.0
78704;SHT31;68034;51.966;5.676;2023-09-12T05:14:05;19.4;86.6
78704;SHT31;68034;51.966;5.676;2023-09-12T05:16:35;19.4;86.1
78704;SHT31;68034;51.966;5.676;2023-09-12T05:19:04;19.4;85.6
78704;SHT31;68034;51.966;5.676;2023-09-12T05:21:33;19.4;85.0
78704;SHT31;68034;51.966;5.676;2023-09-12T05:24:01;19.5;84.7
78704;SHT31;68034;51.966;5.676;2023-09-12T05:26:30;19.5;84.2
78704;SHT31;68034;51.966;5.676;2023-09-12T05:28:58;19.5;84.1
78704;SHT31;68034;51.966;5.676;2023-09-12T05:31:27;19.5;84.0
78704;SHT31;68034;51.966;5.676;2023-09-12T05:33:56;19.5;84.0
78704;SHT31;68034;51.966;5.676;2023-09-12T05:36:24;19.5;83.9
78704;SHT31;68034;51.966;5.676;2023-09-12T05:38:53;19.5;83.9
78704;SHT31;68034;51.966;5.676;2023-09-12T05:41:23;19.6;83.8
78704;SHT31;68034;51.966;5.676;2023-09-12T05:43:52;19.6;83.5
78704;SHT31;68034;51.966;5.676;2023-09-12T05:46:20;19.6;83.5
78704;SHT31;68034;51.966;5.676;2023-09-12T05:48:49;19.6;83.7
78704;SHT31;68034;51.966;5.676;2023-09-12T05:51:18;19.6;84.5
78704;SHT31;68034;51.966;5.676;2023-09-12T05:53:46;19.6;84.4
78704;SHT31;68034;51.966;5.676;2023-09-12T05:56:16;19.6;84.1
78704;SHT31;68034;51.966;5.676;2023-09-12T05:58:46;19.6;84.0
78704;SHT31;68034;51.966;5.676;2023-09-12T06:01:16;19.7;83.9
78704;SHT31;68034;51.966;5.676;2023-09-12T06:03:45;19.7;83.5
78704;SHT31;68034;51.966;5.676;2023-09-12T06:06:14;19.7;83.4
78704;SHT31;68034;51.966;5.676;2023-09-12T06:08:43;19.7;83.4
78704;SHT31;68034;51.966;5.676;2023-09-12T06:11:13;19.7;83.4
78704;SHT31;68034;51.966;5.676;2023-09-12T06:13:42;19.7;83.4
78704;SHT31;68034;51.966;5.676;2023-09-12T06:16:11;19.7;83.5
78704;SHT31;68034;51.966;5.676;2023-09-12T06:18:39;19.7;83.5
78704;SHT31;68034;51.966;5.676;2023-09-12T06:21:07;19.7;83.5
78704;SHT31;68034;51.966;5.676;2023-09-12T06:23:36;19.8;83.4
78704;SHT31;68034;51.966;5.676;2023-09-12T06:26:05;19.8;83.3
78704;SHT31;68034;51.966;5.676;2023-09-12T06:28:33;19.8;83.2
78704;SHT31;68034;51.966;5.676;2023-09-12T06:31:02;19.8;83.3
78704;SHT31;68034;51.966;5.676;2023-09-12T06:33:30;19.8;83.3
78704;SHT31;68034;51.966;5.676;2023-09-12T06:35:59;19.8;83.3
78704;SHT31;68034;51.966;5.676;2023-09-12T06:38:28;19.8;83.3
78704;SHT31;68034;51.966;5.676;2023-09-12T06:40:57;19.8;83.3
78704;SHT31;68034;51.966;5.676;2023-09-12T06:43:25;19.8;83.4
78704;SHT31;68034;51.966;5.676;2023-09-12T06:45:55;19.8;83.3
78704;SHT31;68034;51.966;5.676;2023-09-12T06:48:23;19.8;83.3
78704;SHT31;68034;51.966;5.676;2023-09-12T06:50:54;19.8;83.3
78704;SHT31;68034;51.966;5.676;2023-09-12T06:53:24;19.8;83.3
78704;SHT31;68034;51.966;5.676;2023-09-12T06:55:52;19.8;83.3
78704;SHT31;68034;51.966;5.676;2023-09-12T06:58:23;19.8;83.4
78704;SHT31;68034;51.966;5.676;2023-09-12T07:00:52;19.8;83.4
78704;SHT31;68034;51.966;5.676;2023-09-12T07:03:20;19.9;83.4
78704;SHT31;68034;51.966;5.676;2023-09-12T07:05:49;19.9;83.5
78704;SHT31;68034;51.966;5.676;2023-09-12T07:08:17;19.9;83.7
78704;SHT31;68034;51.966;5.676;2023-09-12T07:10:46;19.9;84.7
78704;SHT31;68034;51.966;5.676;2023-09-12T07:13:14;19.9;86.2
78704;SHT31;68034;51.966;5.676;2023-09-12T07:15:43;19.9;86.8
78704;SHT31;68034;51.966;5.676;2023-09-12T07:18:11;20.0;86.4
78704;SHT31;68034;51.966;5.676;2023-09-12T07:20:41;20.0;86.1
78704;SHT31;68034;51.966;5.676;2023-09-12T07:23:10;20.0;85.7
78704;SHT31;68034;51.966;5.676;2023-09-12T07:25:40;20.0;85.3
78704;SHT31;68034;51.966;5.676;2023-09-12T07:28:09;20.0;85.1
78704;SHT31;68034;51.966;5.676;2023-09-12T07:30:40;20.1;84.8
78704;SHT31;68034;51.966;5.676;2023-09-12T07:33:09;20.1;84.7
78704;SHT31;68034;51.966;5.676;2023-09-12T07:35:37;20.1;84.5
78704;SHT31;68034;51.966;5.676;2023-09-12T07:38:06;20.1;84.3
78704;SHT31;68034;51.966;5.676;2023-09-12T07:40:34;20.1;84.2
78704;SHT31;68034;51.966;5.676;2023-09-12T07:43:05;20.1;84.1
78704;SHT31;68034;51.966;5.676;2023-09-12T07:45:34;20.2;83.9
78704;SHT31;68034;51.966;5.676;2023-09-12T07:48:06;20.2;83.8
78704;SHT31;68034;51.966;5.676;2023-09-12T07:50:35;20.2;83.7
78704;SHT31;68034;51.966;5.676;2023-09-12T07:53:05;20.2;83.6
78704;SHT31;68034;51.966;5.676;2023-09-12T07:55:36;20.2;83.5
78704;SHT31;68034;51.966;5.676;2023-09-12T07:58:09;20.1;83.4
78704;SHT31;68034;51.966;5.676;2023-09-12T08:00:38;20.1;83.5
78704;SHT31;68034;51.966;5.676;2023-09-12T08:03:07;20.1;83.6
78704;SHT31;68034;51.966;5.676;2023-09-12T08:05:35;20.2;83.8
78704;SHT31;68034;51.966;5.676;2023-09-12T08:08:05;20.2;84.2
78704;SHT31;68034;51.966;5.676;2023-09-12T08:10:34;20.2;84.5
78704;SHT31;68034;51.966;5.676;2023-09-12T08:13:02;20.3;84.8
78704;SHT31;68034;51.966;5.676;2023-09-12T08:15:31;20.3;84.9
78704;SHT31;68034;51.966;5.676;2023-09-12T08:18:00;20.3;84.9
78704;SHT31;68034;51.966;5.676;2023-09-12T08:20:30;20.4;84.8
78704;SHT31;68034;51.966;5.676;2023-09-12T08:22:59;20.4;84.8
78704;SHT31;68034;51.966;5.676;2023-09-12T08:25:27;20.5;84.8
78704;SHT31;68034;51.966;5.676;2023-09-12T08:27:56;20.5;84.8
78704;SHT31;68034;51.966;5.676;2023-09-12T08:30:27;20.6;85.0
78704;SHT31;68034;51.966;5.676;2023-09-12T08:32:56;20.6;85.3
78704;SHT31;68034;51.966;5.676;2023-09-12T08:35:25;20.7;85.1
78704;SHT31;68034;51.966;5.676;2023-09-12T08:37:54;20.7;85.2
78704;SHT31;68034;51.966;5.676;2023-09-12T08:40:23;20.8;85.0
78704;SHT31;68034;51.966;5.676;2023-09-12T08:42:52;20.8;85.0
78704;SHT31;68034;51.966;5.676;2023-09-12T08:45:21;20.9;85.0
78704;SHT31;68034;51.966;5.676;2023-09-12T08:47:52;20.9;85.0
78704;SHT31;68034;51.966;5.676;2023-09-12T08:50:21;21.0;84.7
78704;SHT31;68034;51.966;5.676;2023-09-12T08:52:51;21.1;84.7
78704;SHT31;68034;51.966;5.676;2023-09-12T08:55:20;21.1;84.4
78704;SHT31;68034;51.966;5.676;2023-09-12T08:57:50;21.2;84.3
78704;SHT31;68034;51.966;5.676;2023-09-12T09:00:20;21.2;84.2
78704;SHT31;68034;51.966;5.676;2023-09-12T09:02:50;21.3;84.2
78704;SHT31;68034;51.966;5.676;2023-09-12T09:05:20;21.3;84.2
78704;SHT31;68034;51.966;5.676;2023-09-12T09:07:51;21.4;84.2
78704;SHT31;68034;51.966;5.676;2023-09-12T09:10:22;21.5;84.1
78704;SHT31;68034;51.966;5.676;2023-09-12T09:12:59;21.6;85.6
78704;SHT31;68034;51.966;5.676;2023-09-12T09:15:29;21.7;86.5
78704;SHT31;68034;51.966;5.676;2023-09-12T09:18:02;21.8;85.9
78704;SHT31;68034;51.966;5.676;2023-09-12T09:20:33;21.9;85.2
78704;SHT31;68034;51.966;5.676;2023-09-12T09:23:05;21.9;84.5
78704;SHT31;68034;51.966;5.676;2023-09-12T09:25:36;22.0;84.0
78704;SHT31;68034;51.966;5.676;2023-09-12T09:28:18;22.1;83.5
78704;SHT31;68034;51.966;5.676;2023-09-12T09:30:48;22.2;83.0
78704;SHT31;68034;51.966;5.676;2023-09-12T09:33:18;22.3;82.4
78704;SHT31;68034;51.966;5.676;2023-09-12T09:35:48;22.3;82.0
78704;SHT31;68034;51.966;5.676;2023-09-12T09:38:19;22.4;81.7
78704;SHT31;68034;51.966;5.676;2023-09-12T09:40:51;22.5;81.3
78704;SHT31;68034;51.966;5.676;2023-09-12T09:43:21;22.5;80.9
78704;SHT31;68034;51.966;5.676;2023-09-12T09:45:51;22.6;80.7
78704;SHT31;68034;51.966;5.676;2023-09-12T09:48:22;22.7;80.3
78704;SHT31;68034;51.966;5.676;2023-09-12T09:50:51;22.7;79.9
78704;SHT31;68034;51.966;5.676;2023-09-12T09:53:21;22.8;79.7
78704;SHT31;68034;51.966;5.676;2023-09-12T09:56:09;22.8;79.6
78704;SHT31;68034;51.966;5.676;2023-09-12T09:58:42;22.9;79.3
78704;SHT31;68034;51.966;5.676;2023-09-12T10:01:11;23.0;79.2
78704;SHT31;68034;51.966;5.676;2023-09-12T10:03:42;23.1;78.8
78704;SHT31;68034;51.966;5.676;2023-09-12T10:06:14;23.1;78.6
78704;SHT31;68034;51.966;5.676;2023-09-12T10:08:44;23.2;78.4
78704;SHT31;68034;51.966;5.676;2023-09-12T10:11:14;23.3;78.2
78704;SHT31;68034;51.966;5.676;2023-09-12T10:13:49;23.3;77.8
78704;SHT31;68034;51.966;5.676;2023-09-12T10:16:19;23.4;77.7
78704;SHT31;68034;51.966;5.676;2023-09-12T10:18:59;23.5;77.6
78704;SHT31;68034;51.966;5.676;2023-09-12T10:21:31;23.6;77.5
78704;SHT31;68034;51.966;5.676;2023-09-12T10:24:00;23.7;77.3
78704;SHT31;68034;51.966;5.676;2023-09-12T10:26:31;23.8;76.9
78704;SHT31;68034;51.966;5.676;2023-09-12T10:29:00;23.9;76.4
78704;SHT31;68034;51.966;5.676;2023-09-12T10:31:32;23.9;76.1
78704;SHT31;68034;51.966;5.676;2023-09-12T10:34:02;24.0;76.0
78704;SHT31;68034;51.966;5.676;2023-09-12T10:36:36;24.1;75.8
78704;SHT31;68034;51.966;5.676;2023-09-12T10:39:07;24.1;75.6
78704;SHT31;68034;51.966;5.676;2023-09-12T10:41:38;24.2;75.3
78704;SHT31;68034;51.966;5.676;2023-09-12T10:44:11;24.2;74.8
78704;SHT31;68034;51.966;5.676;2023-09-12T10:46:43;24.3;74.7
78704;SHT31;68034;51.966;5.676;2023-09-12T10:49:13;24.3;74.5
78704;SHT31;68034;51.966;5.676;2023-09-12T10:51:44;24.4;74.2
78704;SHT31;68034;51.966;5.676;2023-09-12T10:54:16;24.4;73.9
78704;SHT31;68034;51.966;5.676;2023-09-12T10:57:05;24.4;73.4
78704;SHT31;68034;51.966;5.676;2023-09-12T10:59:35;24.4;73.1
78704;SHT31;68034;51.966;5.676;2023-09-12T11:02:28;24.4;72.8
78704;SHT31;68034;51.966;5.676;2023-09-12T11:05:03;24.4;72.6
78704;SHT31;68034;51.966;5.676;2023-09-12T11:07:45;24.4;72.5
78704;SHT31;68034;51.966;5.676;2023-09-12T11:10:21;24.4;72.2
78704;SHT31;68034;51.966;5.676;2023-09-12T11:12:55;24.4;73.0
78704;SHT31;68034;51.966;5.676;2023-09-12T11:15:28;24.4;73.5
78704;SHT31;68034;51.966;5.676;2023-09-12T11:18:02;24.4;73.8
78704;SHT31;68034;51.966;5.676;2023-09-12T11:20:52;24.4;73.4
78704;SHT31;68034;51.966;5.676;2023-09-12T11:23:21;24.4;73.0
78704;SHT31;68034;51.966;5.676;2023-09-12T11:26:06;24.5;72.9
78704;SHT31;68034;51.966;5.676;2023-09-12T11:28:38;24.5;73.2
78704;SHT31;68034;51.966;5.676;2023-09-12T11:31:11;24.6;73.6
78704;SHT31;68034;51.966;5.676;2023-09-12T11:33:40;24.7;73.7
78704;SHT31;68034;51.966;5.676;2023-09-12T11:36:15;24.8;73.5
78704;SHT31;68034;51.966;5.676;2023-09-12T11:38:49;24.9;73.5
78704;SHT31;68034;51.966;5.676;2023-09-12T11:41:39;25.0;73.3
78704;SHT31;68034;51.966;5.676;2023-09-12T11:44:10;25.1;73.2
78704;SHT31;68034;51.966;5.676;2023-09-12T11:46:39;25.2;72.8
78704;SHT31;68034;51.966;5.676;2023-09-12T11:49:10;25.3;72.4
78704;SHT31;68034;51.966;5.676;2023-09-12T11:51:45;25.4;72.2
78704;SHT31;68034;51.966;5.676;2023-09-12T11:54:16;25.5;71.8
78704;SHT31;68034;51.966;5.676;2023-09-12T11:56:46;25.5;71.4
78704;SHT31;68034;51.966;5.676;2023-09-12T11:59:15;25.6;70.7
78704;SHT31;68034;51.966;5.676;2023-09-12T12:01:45;25.6;70.2
78704;SHT31;68034;51.966;5.676;2023-09-12T12:04:15;25.7;69.8
78704;SHT31;68034;51.966;5.676;2023-09-12T12:06:44;25.7;69.5
78704;SHT31;68034;51.966;5.676;2023-09-12T12:09:12;25.7;69.3
78704;SHT31;68034;51.966;5.676;2023-09-12T12:11:44;25.8;69.2
78704;SHT31;68034;51.966;5.676;2023-09-12T12:14:15;25.8;69.2
78704;SHT31;68034;51.966;5.676;2023-09-12T12:16:46;25.8;69.4
78704;SHT31;68034;51.966;5.676;2023-09-12T12:19:15;25.9;69.4
78704;SHT31;68034;51.966;5.676;2023-09-12T12:21:44;26.0;69.4
78704;SHT31;68034;51.966;5.676;2023-09-12T12:24:14;26.0;69.1
78704;SHT31;68034;51.966;5.676;2023-09-12T12:26:44;26.1;68.7
78704;SHT31;68034;51.966;5.676;2023-09-12T12:29:12;26.1;68.6
78704;SHT31;68034;51.966;5.676;2023-09-12T12:31:41;26.2;68.6
78704;SHT31;68034;51.966;5.676;2023-09-12T12:34:10;26.3;68.4
78704;SHT31;68034;51.966;5.676;2023-09-12T12:36:42;26.4;68.2
78704;SHT31;68034;51.966;5.676;2023-09-12T12:39:12;26.5;67.9
78704;SHT31;68034;51.966;5.676;2023-09-12T12:41:43;26.5;67.9
78704;SHT31;68034;51.966;5.676;2023-09-12T12:44:11;26.6;67.6
78704;SHT31;68034;51.966;5.676;2023-09-12T12:46:49;26.7;67.3
78704;SHT31;68034;51.966;5.676;2023-09-12T12:49:20;26.8;66.9
78704;SHT31;68034;51.966;5.676;2023-09-12T12:51:49;26.8;66.8
78704;SHT31;68034;51.966;5.676;2023-09-12T12:54:24;26.9;66.7
78704;SHT31;68034;51.966;5.676;2023-09-12T12:56:52;26.9;65.9
78704;SHT31;68034;51.966;5.676;2023-09-12T12:59:21;27.0;65.7
78704;SHT31;68034;51.966;5.676;2023-09-12T13:01:50;27.0;65.4
78704;SHT31;68034;51.966;5.676;2023-09-12T13:04:20;27.0;65.2
78704;SHT31;68034;51.966;5.676;2023-09-12T13:06:49;27.1;65.1
78704;SHT31;68034;51.966;5.676;2023-09-12T13:09:17;27.2;64.9
78704;SHT31;68034;51.966;5.676;2023-09-12T13:11:46;27.2;64.7
78704;SHT31;68034;51.966;5.676;2023-09-12T13:14:18;27.3;64.6
78704;SHT31;68034;51.966;5.676;2023-09-12T13:16:57;27.4;64.9
78704;SHT31;68034;51.966;5.676;2023-09-12T13:19:30;27.5;65.2
78704;SHT31;68034;51.966;5.676;2023-09-12T13:21:58;27.6;65.0
78704;SHT31;68034;51.966;5.676;2023-09-12T13:24:27;27.6;64.2
78704;SHT31;68034;51.966;5.676;2023-09-12T13:26:57;27.7;63.7
78704;SHT31;68034;51.966;5.676;2023-09-12T13:29:26;27.8;63.2
78704;SHT31;68034;51.966;5.676;2023-09-12T13:31:54;27.9;62.9
78704;SHT31;68034;51.966;5.676;2023-09-12T13:34:23;28.0;62.7
78704;SHT31;68034;51.966;5.676;2023-09-12T13:36:51;28.0;62.3
78704;SHT31;68034;51.966;5.676;2023-09-12T13:39:20;28.1;62.0
78704;SHT31;68034;51.966;5.676;2023-09-12T13:41:48;28.2;61.9
78704;SHT31;68034;51.966;5.676;2023-09-12T13:44:17;28.3;61.6
78704;SHT31;68034;51.966;5.676;2023-09-12T13:46:45;28.4;61.4
78704;SHT31;68034;51.966;5.676;2023-09-12T13:49:15;28.4;61.2
78704;SHT31;68034;51.966;5.676;2023-09-12T13:51:43;28.5;61.4
78704;SHT31;68034;51.966;5.676;2023-09-12T13:54:13;28.6;61.4
78704;SHT31;68034;51.966;5.676;2023-09-12T13:56:43;28.6;61.0
78704;SHT31;68034;51.966;5.676;2023-09-12T13:59:12;28.7;60.4
78704;SHT31;68034;51.966;5.676;2023-09-12T14:01:42;28.7;59.8
78704;SHT31;68034;51.966;5.676;2023-09-12T14:04:10;28.7;59.3
78704;SHT31;68034;51.966;5.676;2023-09-12T14:06:39;28.7;58.8
78704;SHT31;68034;51.966;5.676;2023-09-12T14:09:08;28.6;58.3
78704;SHT31;68034;51.966;5.676;2023-09-12T14:11:36;28.5;58.0
78704;SHT31;68034;51.966;5.676;2023-09-12T14:14:06;28.4;58.0
78704;SHT31;68034;51.966;5.676;2023-09-12T14:16:35;28.3;58.1
78704;SHT31;68034;51.966;5.676;2023-09-12T14:19:03;28.2;58.1
78704;SHT31;68034;51.966;5.676;2023-09-12T14:21:32;28.1;58.2
78704;SHT31;68034;51.966;5.676;2023-09-12T14:24:00;28.0;58.3
78704;SHT31;68034;51.966;5.676;2023-09-12T14:26:29;27.9;58.4
78704;SHT31;68034;51.966;5.676;2023-09-12T14:28:57;27.8;58.6
78704;SHT31;68034;51.966;5.676;2023-09-12T14:31:26;27.8;58.7
78704;SHT31;68034;51.966;5.676;2023-09-12T14:33:55;27.7;58.6
78704;SHT31;68034;51.966;5.676;2023-09-12T14:36:24;27.7;58.7
78704;SHT31;68034;51.966;5.676;2023-09-12T14:38:52;27.6;58.8
78704;SHT31;68034;51.966;5.676;2023-09-12T14:41:21;27.6;59.1
78704;SHT31;68034;51.966;5.676;2023-09-12T14:43:49;27.5;59.1
78704;SHT31;68034;51.966;5.676;2023-09-12T14:46:18;27.5;59.1
78704;SHT31;68034;51.966;5.676;2023-09-12T14:48:48;27.5;59.0
78704;SHT31;68034;51.966;5.676;2023-09-12T14:51:17;27.4;58.8
78704;SHT31;68034;51.966;5.676;2023-09-12T14:53:47;27.4;58.8
78704;SHT31;68034;51.966;5.676;2023-09-12T14:56:17;27.4;58.7
78704;SHT31;68034;51.966;5.676;2023-09-12T14:58:46;27.3;58.7
78704;SHT31;68034;51.966;5.676;2023-09-12T15:01:14;27.3;58.8
78704;SHT31;68034;51.966;5.676;2023-09-12T15:03:43;27.3;59.0
78704;SHT31;68034;51.966;5.676;2023-09-12T15:06:11;27.3;59.1
78704;SHT31;68034;51.966;5.676;2023-09-12T15:08:40;27.3;59.4
78704;SHT31;68034;51.966;5.676;2023-09-12T15:11:08;27.2;59.5
78704;SHT31;68034;51.966;5.676;2023-09-12T15:13:37;27.2;59.6
78704;SHT31;68034;51.966;5.676;2023-09-12T15:16:06;27.2;59.8
78704;SHT31;68034;51.966;5.676;2023-09-12T15:18:36;27.2;60.2
78704;SHT31;68034;51.966;5.676;2023-09-12T15:21:07;27.1;61.0
78704;SHT31;68034;51.966;5.676;2023-09-12T15:23:36;27.1;61.2
78704;SHT31;68034;51.966;5.676;2023-09-12T15:26:04;27.0;61.0
78704;SHT31;68034;51.966;5.676;2023-09-12T15:28:33;27.0;61.1
78704;SHT31;68034;51.966;5.676;2023-09-12T15:31:01;27.0;61.2
78704;SHT31;68034;51.966;5.676;2023-09-12T15:33:30;27.0;61.0
78704;SHT31;68034;51.966;5.676;2023-09-12T15:35:59;27.0;60.9
78704;SHT31;68034;51.966;5.676;2023-09-12T15:38:28;26.9;60.7
78704;SHT31;68034;51.966;5.676;2023-09-12T15:40:57;26.9;60.7
78704;SHT31;68034;51.966;5.676;2023-09-12T15:43:29;26.8;60.8
78704;SHT31;68034;51.966;5.676;2023-09-12T15:45:57;26.8;60.6
78704;SHT31;68034;51.966;5.676;2023-09-12T15:48:26;26.7;60.7
78704;SHT31;68034;51.966;5.676;2023-09-12T15:50:55;26.7;60.6
78704;SHT31;68034;51.966;5.676;2023-09-12T15:53:24;26.6;60.8
78704;SHT31;68034;51.966;5.676;2023-09-12T15:55:53;26.6;60.8
78704;SHT31;68034;51.966;5.676;2023-09-12T15:58:23;26.6;61.0
78704;SHT31;68034;51.966;5.676;2023-09-12T16:00:53;26.5;61.2
78704;SHT31;68034;51.966;5.676;2023-09-12T16:03:24;26.5;61.3
78704;SHT31;68034;51.966;5.676;2023-09-12T16:05:53;26.5;61.3
78704;SHT31;68034;51.966;5.676;2023-09-12T16:08:22;26.5;61.4
78704;SHT31;68034;51.966;5.676;2023-09-12T16:10:50;26.4;61.5
78704;SHT31;68034;51.966;5.676;2023-09-12T16:13:21;26.4;61.4
78704;SHT31;68034;51.966;5.676;2023-09-12T16:15:51;26.3;61.5
78704;SHT31;68034;51.966;5.676;2023-09-12T16:18:20;26.3;61.7
78704;SHT31;68034;51.966;5.676;2023-09-12T16:20:49;26.2;61.8